Time;durP1;ratioP1;P1;durP2;ratioP2;P2;SDS_P1;SDS_P2;PMS_P1;PMS_P2;Temp;Humidity;BMP_temperature;BMP_pressure;BME280_temperature;BME280_humidity;BME280_pressure;Samples;Min_cycle;Max_cycle;Signal;HPM_P1;HPM_P2
2023/06/08 00:00:26;;;;;;;11.35;5.38;;;;;;;;;;5082765;28;20433;-77
2023/06/08 00:02:55;;;;;;;15.45;5.60;;;;;;;;;;5053306;28;20412;-77
2023/06/08 00:05:23;;;;;;;13.32;5.75;;;;;;;;;;5052244;28;20905;-77
2023/06/08 00:07:51;;;;;;;13.30;5.57;;;;;;;;;;5053298;28;20758;-77
2023/06/08 00:10:19;;;;;;;13.30;5.70;;;;;;;;;;5057036;28;20764;-78
2023/06/08 00:12:46;;;;;;;12.30;5.80;;;;;;;;;;5059511;28;20423;-78
2023/06/08 00:15:17;;;;;;;11.60;5.90;;;;;;;;;;5072776;28;20415;-77
2023/06/08 00:17:50;;;;;;;15.20;5.93;;;;;;;;;;5056423;28;21059;-77
2023/06/08 00:20:25;;;;;;;14.90;5.53;;;;;;;;;;5063881;28;20411;-79
2023/06/08 00:22:59;;;;;;;14.70;6.05;;;;;;;;;;5063454;28;20432;-77
2023/06/08 00:25:32;;;;;;;13.60;5.88;;;;;;;;;;5058593;28;20416;-77
2023/06/08 00:28:00;;;;;;;10.93;5.50;;;;;;;;;;5062515;28;20758;-76
2023/06/08 00:30:30;;;;;;;14.10;5.80;;;;;;;;;;5077420;28;20423;-76
2023/06/08 00:32:57;;;;;;;12.90;5.70;;;;;;;;;;5060494;28;20504;-77
2023/06/08 00:35:30;;;;;;;13.38;5.80;;;;;;;;;;5062750;28;20409;-77
2023/06/08 00:37:58;;;;;;;16.10;5.90;;;;;;;;;;5060041;28;20433;-79
2023/06/08 00:40:31;;;;;;;14.73;6.30;;;;;;;;;;5066829;28;20970;-77
2023/06/08 00:43:04;;;;;;;13.18;6.20;;;;;;;;;;5058756;28;20769;-78
2023/06/08 00:45:33;;;;;;;14.73;6.00;;;;;;;;;;5058637;28;20428;-77
2023/06/08 00:48:02;;;;;;;14.40;5.88;;;;;;;;;;5069952;28;20423;-78
2023/06/08 00:50:31;;;;;;;11.43;6.13;;;;;;;;;;5059346;28;20418;-77
2023/06/08 00:52:59;;;;;;;14.93;5.60;;;;;;;;;;5059825;28;20427;-78
2023/06/08 00:55:33;;;;;;;14.17;5.83;;;;;;;;;;5062599;28;20428;-77
2023/06/08 00:58:11;;;;;;;16.58;6.45;;;;;;;;;;5065921;28;20425;-79
2023/06/08 01:00:40;;;;;;;15.85;6.20;;;;;;;;;;5078106;28;20423;-77
2023/06/08 01:03:08;;;;;;;14.77;6.20;;;;;;;;;;5068651;28;20988;-78
2023/06/08 01:05:38;;;;;;;14.60;6.40;;;;;;;;;;5064961;28;20413;-77
2023/06/08 01:08:11;;;;;;;17.35;6.28;;;;;;;;;;5062215;28;20749;-77
2023/06/08 01:10:43;;;;;;;14.50;6.13;;;;;;;;;;5066994;28;20424;-78
2023/06/08 01:13:14;;;;;;;14.65;5.93;;;;;;;;;;5064640;28;20415;-78
2023/06/08 01:15:51;;;;;;;15.40;6.10;;;;;;;;;;5068523;28;20411;-80
2023/06/08 01:18:24;;;;;;;14.60;6.63;;;;;;;;;;5084319;28;20506;-77
2023/06/08 01:21:07;;;;;;;16.52;6.30;;;;;;;;;;5066426;28;20421;-77
2023/06/08 01:23:44;;;;;;;15.15;6.32;;;;;;;;;;5066374;28;20412;-77
2023/06/08 01:26:20;;;;;;;18.83;6.75;;;;;;;;;;5065749;28;20422;-77
2023/06/08 01:28:48;;;;;;;14.70;6.57;;;;;;;;;;5058758;28;20396;-78
2023/06/08 01:31:16;;;;;;;14.73;6.73;;;;;;;;;;5064342;28;20749;-77
2023/06/08 01:33:49;;;;;;;18.17;6.70;;;;;;;;;;5058465;28;20417;-77
2023/06/08 01:36:20;;;;;;;18.70;6.90;;;;;;;;;;5054092;28;20425;-77
2023/06/08 01:38:56;;;;;;;18.17;6.90;;;;;;;;;;5069863;28;20757;-76
2023/06/08 01:41:28;;;;;;;16.13;7.07;;;;;;;;;;5069086;28;20450;-77
2023/06/08 01:44:01;;;;;;;15.88;6.50;;;;;;;;;;5050261;28;21264;-77
2023/06/08 01:46:31;;;;;;;18.57;7.40;;;;;;;;;;5073440;28;20424;-78
2023/06/08 01:49:00;;;;;;;14.73;6.95;;;;;;;;;;5086747;28;20395;-76
2023/06/08 01:51:33;;;;;;;17.27;7.20;;;;;;;;;;5066663;28;20433;-77
2023/06/08 01:54:01;;;;;;;18.52;7.47;;;;;;;;;;5067661;28;20431;-76
2023/06/08 01:56:36;;;;;;;17.75;7.35;;;;;;;;;;5055347;28;20420;-77
2023/06/08 01:59:04;;;;;;;18.95;7.57;;;;;;;;;;5052905;28;20432;-78
2023/06/08 02:01:32;;;;;;;17.63;7.32;;;;;;;;;;5066292;28;20427;-77
2023/06/08 02:04:05;;;;;;;22.50;7.37;;;;;;;;;;5070991;28;20476;-78
2023/06/08 02:06:38;;;;;;;23.33;7.43;;;;;;;;;;5078716;28;20819;-76
2023/06/08 02:09:11;;;;;;;20.43;7.60;;;;;;;;;;5061591;28;20424;-78
2023/06/08 02:11:45;;;;;;;20.73;7.45;;;;;;;;;;5051193;28;20435;-78
2023/06/08 02:14:18;;;;;;;19.92;8.07;;;;;;;;;;5058531;28;20783;-77
2023/06/08 02:16:52;;;;;;;18.00;7.67;;;;;;;;;;5069501;28;20452;-76
2023/06/08 02:19:26;;;;;;;20.07;7.67;;;;;;;;;;5079413;28;20427;-76
2023/06/08 02:21:54;;;;;;;21.25;8.02;;;;;;;;;;5056167;28;20793;-76
2023/06/08 02:24:21;;;;;;;18.92;8.38;;;;;;;;;;5064288;28;20430;-77
2023/06/08 02:26:52;;;;;;;14.82;7.72;;;;;;;;;;5051064;28;20896;-76
2023/06/08 02:29:19;;;;;;;19.73;8.05;;;;;;;;;;5055990;28;20757;-77
2023/06/08 02:31:47;;;;;;;17.25;7.93;;;;;;;;;;5055880;28;20425;-77
2023/06/08 02:34:20;;;;;;;19.85;7.70;;;;;;;;;;5055468;28;20786;-77
2023/06/08 02:36:53;;;;;;;17.10;7.77;;;;;;;;;;5063061;28;20432;-77
2023/06/08 02:39:26;;;;;;;21.85;8.00;;;;;;;;;;5073484;28;20424;-77
2023/06/08 02:42:01;;;;;;;21.48;8.35;;;;;;;;;;5063458;28;20754;-76
2023/06/08 02:44:33;;;;;;;17.00;7.80;;;;;;;;;;5067640;28;20438;-78
2023/06/08 02:47:07;;;;;;;20.40;8.30;;;;;;;;;;5059524;28;20438;-76
2023/06/08 02:49:40;;;;;;;19.92;8.13;;;;;;;;;;5067517;28;20412;-76
2023/06/08 02:52:13;;;;;;;18.38;7.80;;;;;;;;;;5067174;28;20409;-77
2023/06/08 02:54:40;;;;;;;19.33;8.05;;;;;;;;;;5049590;28;20421;-77
2023/06/08 02:57:15;;;;;;;20.23;7.95;;;;;;;;;;5049772;28;20410;-77
2023/06/08 02:59:53;;;;;;;18.33;8.20;;;;;;;;;;5069092;28;20422;-78
2023/06/08 03:02:22;;;;;;;19.75;8.52;;;;;;;;;;5080991;28;20427;-76
2023/06/08 03:04:52;;;;;;;20.25;7.70;;;;;;;;;;5062283;28;20428;-77
2023/06/08 03:07:20;;;;;;;22.15;8.43;;;;;;;;;;5056846;28;20889;-77
2023/06/08 03:09:54;;;;;;;18.77;7.88;;;;;;;;;;5070494;28;20413;-77
2023/06/08 03:12:29;;;;;;;21.17;8.48;;;;;;;;;;5063353;28;20432;-75
2023/06/08 03:14:58;;;;;;;22.52;8.13;;;;;;;;;;5054636;28;20426;-75
2023/06/08 03:17:27;;;;;;;21.00;8.25;;;;;;;;;;5067683;28;20430;-77
2023/06/08 03:19:55;;;;;;;23.47;8.53;;;;;;;;;;5072685;28;20423;-78
2023/06/08 03:22:26;;;;;;;20.60;7.95;;;;;;;;;;5057497;28;20419;-75
2023/06/08 03:25:07;;;;;;;24.17;9.27;;;;;;;;;;5066331;28;20419;-75
2023/06/08 03:27:42;;;;;;;19.50;8.38;;;;;;;;;;5069422;28;20881;-78
2023/06/08 03:30:13;;;;;;;19.35;8.25;;;;;;;;;;5069579;28;20417;-77
2023/06/08 03:32:51;;;;;;;20.23;8.53;;;;;;;;;;5083801;28;20422;-76
2023/06/08 03:35:26;;;;;;;19.73;8.10;;;;;;;;;;5069662;28;20424;-76
2023/06/08 03:38:13;;;;;;;20.15;8.50;;;;;;;;;;5063492;28;20432;-77
2023/06/08 03:40:47;;;;;;;21.02;8.68;;;;;;;;;;5054999;28;20425;-77
2023/06/08 03:43:22;;;;;;;23.17;8.35;;;;;;;;;;5053149;28;20410;-77
2023/06/08 03:45:51;;;;;;;22.02;8.65;;;;;;;;;;5067883;28;20434;-76
2023/06/08 03:48:19;;;;;;;19.17;8.43;;;;;;;;;;5091410;28;20421;-78
2023/06/08 03:50:47;;;;;;;21.80;8.38;;;;;;;;;;5056949;28;20409;-76
2023/06/08 03:53:17;;;;;;;19.80;8.88;;;;;;;;;;5061219;28;20422;-77
2023/06/08 03:55:45;;;;;;;21.70;8.43;;;;;;;;;;5063712;28;20413;-76
2023/06/08 03:58:18;;;;;;;19.15;8.73;;;;;;;;;;5079477;28;20419;-77
2023/06/08 04:00:53;;;;;;;19.30;8.27;;;;;;;;;;5070244;28;20428;-77
2023/06/08 04:03:24;;;;;;;20.27;9.02;;;;;;;;;;5069245;28;20907;-75
2023/06/08 04:05:52;;;;;;;19.58;8.63;;;;;;;;;;5083073;28;20400;-77
2023/06/08 04:08:26;;;;;;;22.95;8.90;;;;;;;;;;5069967;28;20421;-76
2023/06/08 04:10:59;;;;;;;20.75;9.40;;;;;;;;;;5067738;28;20426;-75
2023/06/08 04:13:27;;;;;;;17.50;8.55;;;;;;;;;;5065887;28;20415;-77
2023/06/08 04:15:56;;;;;;;20.90;8.88;;;;;;;;;;5067554;28;20427;-76
2023/06/08 04:18:25;;;;;;;21.75;8.50;;;;;;;;;;5065494;28;20500;-76
2023/06/08 04:20:53;;;;;;;21.07;8.67;;;;;;;;;;5066417;28;20423;-77
2023/06/08 04:23:23;;;;;;;20.35;8.60;;;;;;;;;;5061224;28;20399;-76
2023/06/08 04:25:50;;;;;;;18.77;8.57;;;;;;;;;;5063554;28;20420;-77
2023/06/08 04:28:23;;;;;;;22.45;9.00;;;;;;;;;;5065716;28;20413;-76
2023/06/08 04:30:51;;;;;;;17.60;8.60;;;;;;;;;;5064686;28;20433;-80
2023/06/08 04:33:21;;;;;;;18.67;8.40;;;;;;;;;;5072787;28;20427;-78
2023/06/08 04:35:50;;;;;;;20.95;9.45;;;;;;;;;;5058914;28;20417;-75
2023/06/08 04:38:18;;;;;;;21.77;8.98;;;;;;;;;;5067002;28;20764;-75
2023/06/08 04:40:52;;;;;;;24.30;9.55;;;;;;;;;;5070321;28;20415;-75
2023/06/08 04:43:31;;;;;;;22.00;9.38;;;;;;;;;;5067572;28;20412;-76
2023/06/08 04:46:10;;;;;;;21.70;8.98;;;;;;;;;;5060044;28;20788;-79
2023/06/08 04:48:39;;;;;;;18.45;8.27;;;;;;;;;;5050794;28;20430;-78
2023/06/08 04:51:09;;;;;;;22.80;8.88;;;;;;;;;;5055746;28;20401;-78
2023/06/08 04:53:37;;;;;;;19.40;9.13;;;;;;;;;;5068577;28;20428;-77
2023/06/08 04:56:06;;;;;;;19.50;8.47;;;;;;;;;;5066551;28;20412;-78
2023/06/08 04:58:39;;;;;;;21.10;9.53;;;;;;;;;;5052778;28;20424;-77
2023/06/08 05:01:07;;;;;;;18.25;8.65;;;;;;;;;;5055935;28;20770;-83
2023/06/08 05:03:43;;;;;;;20.80;9.50;;;;;;;;;;5056593;28;20444;-80
2023/06/08 05:06:10;;;;;;;18.52;8.25;;;;;;;;;;5060726;28;20427;-78
2023/06/08 05:08:38;;;;;;;18.92;8.20;;;;;;;;;;5066864;28;20764;-77
2023/06/08 05:11:06;;;;;;;14.38;7.82;;;;;;;;;;5065840;28;20405;-77
2023/06/08 05:13:34;;;;;;;16.85;7.45;;;;;;;;;;5068979;28;20426;-77
2023/06/08 05:16:02;;;;;;;14.65;7.45;;;;;;;;;;5062063;28;20774;-77
2023/06/08 05:18:35;;;;;;;15.38;7.95;;;;;;;;;;5065906;28;20419;-79
2023/06/08 05:21:04;;;;;;;16.70;7.60;;;;;;;;;;5056810;28;20425;-78
2023/06/08 05:23:32;;;;;;;17.10;8.10;;;;;;;;;;5065824;28;20431;-77
2023/06/08 05:26:05;;;;;;;13.00;7.53;;;;;;;;;;5055511;28;20424;-78
2023/06/08 05:28:38;;;;;;;15.45;7.60;;;;;;;;;;5058931;28;20767;-77
2023/06/08 05:31:06;;;;;;;17.40;8.48;;;;;;;;;;5052986;28;20423;-79
2023/06/08 05:33:34;;;;;;;17.02;8.32;;;;;;;;;;5061265;28;20434;-79
2023/06/08 05:36:01;;;;;;;17.00;8.68;;;;;;;;;;5079789;28;20434;-77
2023/06/08 05:38:30;;;;;;;19.15;8.80;;;;;;;;;;5066631;28;20429;-78
2023/06/08 05:41:04;;;;;;;16.10;9.00;;;;;;;;;;5060394;28;20431;-81
2023/06/08 05:43:31;;;;;;;17.85;8.60;;;;;;;;;;5058289;28;20434;-78
2023/06/08 05:46:04;;;;;;;18.73;8.88;;;;;;;;;;5057457;28;20504;-80
2023/06/08 05:48:32;;;;;;;17.83;8.77;;;;;;;;;;5059702;28;20441;-80
2023/06/08 05:51:05;;;;;;;17.67;9.50;;;;;;;;;;5065205;28;20424;-78
2023/06/08 05:53:39;;;;;;;19.27;9.38;;;;;;;;;;5059491;28;20434;-77
2023/06/08 05:56:07;;;;;;;18.92;9.57;;;;;;;;;;5060690;28;20780;-78
2023/06/08 05:58:37;;;;;;;18.80;8.95;;;;;;;;;;5056621;28;20474;-80
2023/06/08 06:01:04;;;;;;;20.15;9.10;;;;;;;;;;5053643;28;20428;-77
2023/06/08 06:03:32;;;;;;;18.05;9.25;;;;;;;;;;5056627;28;20451;-78
2023/06/08 06:06:06;;;;;;;16.25;8.52;;;;;;;;;;5072490;28;20436;-78
2023/06/08 06:08:40;;;;;;;15.73;8.30;;;;;;;;;;5062454;28;20423;-77
2023/06/08 06:11:08;;;;;;;17.60;7.80;;;;;;;;;;5060786;28;20807;-78
2023/06/08 06:13:36;;;;;;;14.57;7.90;;;;;;;;;;5047141;28;20985;-80
2023/06/08 06:16:04;;;;;;;15.68;7.72;;;;;;;;;;5052265;28;20432;-78
2023/06/08 06:18:34;;;;;;;14.93;7.80;;;;;;;;;;5053872;28;20435;-83
2023/06/08 06:21:02;;;;;;;15.25;7.85;;;;;;;;;;5049213;28;20439;-83
2023/06/08 06:23:29;;;;;;;18.65;8.27;;;;;;;;;;5041363;28;20431;-78
2023/06/08 06:26:01;;;;;;;16.77;7.75;;;;;;;;;;5040178;28;20436;-81
2023/06/08 06:28:29;;;;;;;18.85;8.57;;;;;;;;;;5044222;28;20485;-82
2023/06/08 06:30:57;;;;;;;14.85;7.75;;;;;;;;;;5040668;28;20435;-82
2023/06/08 06:33:30;;;;;;;18.83;8.52;;;;;;;;;;5046855;28;21756;-79
2023/06/08 06:36:03;;;;;;;18.65;7.75;;;;;;;;;;5063229;28;20427;-82
2023/06/08 06:38:36;;;;;;;15.27;8.32;;;;;;;;;;5048313;28;20427;-80
2023/06/08 06:41:05;;;;;;;14.90;7.93;;;;;;;;;;5056991;28;21360;-77
2023/06/08 06:43:33;;;;;;;17.30;8.00;;;;;;;;;;5043677;28;20421;-77
2023/06/08 06:46:12;;;;;;;14.73;7.47;;;;;;;;;;5048362;28;20447;-78
2023/06/08 06:48:40;;;;;;;15.80;7.82;;;;;;;;;;5053810;28;20411;-80
2023/06/08 06:51:07;;;;;;;13.57;7.10;;;;;;;;;;5047878;28;21156;-77
2023/06/08 06:53:35;;;;;;;15.43;7.25;;;;;;;;;;5053355;28;20427;-78
2023/06/08 06:56:03;;;;;;;14.83;7.57;;;;;;;;;;5053021;28;20431;-85
2023/06/08 06:58:38;;;;;;;15.98;7.47;;;;;;;;;;5048911;28;21223;-81
2023/06/08 07:01:06;;;;;;;15.17;7.80;;;;;;;;;;5044110;28;20436;-80
2023/06/08 07:03:34;;;;;;;15.15;7.15;;;;;;;;;;5047346;28;20442;-79
2023/06/08 07:06:07;;;;;;;16.20;7.20;;;;;;;;;;5046543;28;20419;-81
2023/06/08 07:08:35;;;;;;;16.08;7.15;;;;;;;;;;5045145;28;20419;-82
2023/06/08 07:11:03;;;;;;;13.02;6.70;;;;;;;;;;5044595;28;20428;-82
2023/06/08 07:13:36;;;;;;;13.15;7.20;;;;;;;;;;5044340;28;20423;-80
2023/06/08 07:16:10;;;;;;;15.02;7.35;;;;;;;;;;5050957;28;20416;-80
2023/06/08 07:18:38;;;;;;;16.83;7.93;;;;;;;;;;5046499;28;20408;-79
2023/06/08 07:21:06;;;;;;;14.53;7.53;;;;;;;;;;5044818;28;20427;-80
2023/06/08 07:23:39;;;;;;;15.17;7.30;;;;;;;;;;5044646;28;20440;-82
2023/06/08 07:26:12;;;;;;;15.83;7.93;;;;;;;;;;5054255;28;20458;-82
2023/06/08 07:28:45;;;;;;;17.10;7.90;;;;;;;;;;5054380;28;20827;-81
2023/06/08 07:31:14;;;;;;;13.73;7.97;;;;;;;;;;5043670;28;21463;-79
2023/06/08 07:33:42;;;;;;;15.83;7.43;;;;;;;;;;5044078;28;20427;-82
2023/06/08 07:36:15;;;;;;;14.45;7.78;;;;;;;;;;5045938;28;20435;-82
2023/06/08 07:38:50;;;;;;;15.95;7.82;;;;;;;;;;5048058;28;20450;-80
2023/06/08 07:41:18;;;;;;;16.52;7.68;;;;;;;;;;5049160;28;20709;-79
2023/06/08 07:43:51;;;;;;;15.15;7.70;;;;;;;;;;5047050;28;20432;-80
2023/06/08 07:46:20;;;;;;;14.00;7.72;;;;;;;;;;5057171;28;20431;-78
2023/06/08 07:48:48;;;;;;;14.75;7.18;;;;;;;;;;5045488;28;20419;-81
2023/06/08 07:51:16;;;;;;;13.35;7.00;;;;;;;;;;5047111;28;20441;-77
2023/06/08 07:53:43;;;;;;;15.60;7.15;;;;;;;;;;5047092;28;20426;-82
2023/06/08 07:56:11;;;;;;;16.95;7.38;;;;;;;;;;5044818;28;20427;-81
2023/06/08 07:58:39;;;;;;;13.95;7.00;;;;;;;;;;5045036;28;21085;-82
2023/06/08 08:01:12;;;;;;;15.52;7.03;;;;;;;;;;5042456;28;20502;-82
2023/06/08 08:03:44;;;;;;;16.38;6.97;;;;;;;;;;5044652;28;20419;-80
2023/06/08 08:06:11;;;;;;;13.75;7.45;;;;;;;;;;5046281;28;20438;-79
2023/06/08 08:08:44;;;;;;;14.97;6.90;;;;;;;;;;5043642;28;20444;-83
2023/06/08 08:11:12;;;;;;;13.07;7.05;;;;;;;;;;5046822;28;20518;-79
2023/06/08 08:13:40;;;;;;;15.10;6.93;;;;;;;;;;5048347;28;20447;-82
2023/06/08 08:16:08;;;;;;;14.77;6.53;;;;;;;;;;5047011;28;21149;-82
2023/06/08 08:18:42;;;;;;;14.63;6.60;;;;;;;;;;5043235;28;20928;-79
2023/06/08 08:21:10;;;;;;;14.57;6.73;;;;;;;;;;5045493;28;20427;-80
2023/06/08 08:23:39;;;;;;;12.03;6.87;;;;;;;;;;5043358;28;20431;-80
2023/06/08 08:26:07;;;;;;;13.07;6.53;;;;;;;;;;5050584;28;20404;-79
2023/06/08 08:28:38;;;;;;;13.15;6.38;;;;;;;;;;5051585;28;20880;-81
2023/06/08 08:31:06;;;;;;;14.35;6.68;;;;;;;;;;5041204;28;20419;-81
2023/06/08 08:33:38;;;;;;;14.60;6.73;;;;;;;;;;5040219;28;20420;-80
2023/06/08 08:36:08;;;;;;;15.40;6.60;;;;;;;;;;5045675;28;20403;-80
2023/06/08 08:38:36;;;;;;;13.20;6.30;;;;;;;;;;5047444;28;20447;-80
2023/06/08 08:41:05;;;;;;;13.98;6.68;;;;;;;;;;5038811;28;20431;-79
2023/06/08 08:43:36;;;;;;;13.57;6.15;;;;;;;;;;5044279;28;20938;-80
2023/06/08 08:46:06;;;;;;;13.57;7.25;;;;;;;;;;5039326;28;20416;-82
2023/06/08 08:48:35;;;;;;;13.47;6.27;;;;;;;;;;5046351;28;20737;-83
2023/06/08 08:51:13;;;;;;;12.27;6.07;;;;;;;;;;5048606;28;20418;-83
2023/06/08 08:53:41;;;;;;;11.90;6.05;;;;;;;;;;5046043;28;20434;-78
2023/06/08 08:56:09;;;;;;;12.23;6.63;;;;;;;;;;5050195;28;20434;-82
2023/06/08 08:58:38;;;;;;;12.82;6.05;;;;;;;;;;5046264;28;20446;-80
2023/06/08 09:01:08;;;;;;;11.27;5.93;;;;;;;;;;5051693;28;20536;-80
2023/06/08 09:03:41;;;;;;;13.68;5.93;;;;;;;;;;5046790;28;21864;-81
2023/06/08 09:06:15;;;;;;;11.43;6.17;;;;;;;;;;5049304;28;20420;-78
2023/06/08 09:08:43;;;;;;;12.38;5.97;;;;;;;;;;5048301;28;20418;-83
2023/06/08 09:11:11;;;;;;;12.98;6.20;;;;;;;;;;5044519;28;20426;-79
2023/06/08 09:13:39;;;;;;;12.68;6.38;;;;;;;;;;5037840;28;20439;-81
2023/06/08 09:16:10;;;;;;;10.55;5.90;;;;;;;;;;5039024;28;20423;-80
2023/06/08 09:18:44;;;;;;;12.30;6.47;;;;;;;;;;5040475;28;20832;-81
2023/06/08 09:21:26;;;;;;;10.73;5.70;;;;;;;;;;5047591;28;20435;-82
2023/06/08 09:24:06;;;;;;;11.07;5.85;;;;;;;;;;5043034;28;20932;-79
2023/06/08 09:26:36;;;;;;;12.07;6.20;;;;;;;;;;5045794;28;20883;-78
2023/06/08 09:29:04;;;;;;;11.10;5.50;;;;;;;;;;5044287;28;20434;-84
2023/06/08 09:31:32;;;;;;;11.07;5.55;;;;;;;;;;5039000;28;20439;-81
2023/06/08 09:34:09;;;;;;;11.60;5.82;;;;;;;;;;5040725;28;20419;-81
2023/06/08 09:36:38;;;;;;;11.05;5.70;;;;;;;;;;5041757;28;20407;-79
2023/06/08 09:39:11;;;;;;;10.55;5.38;;;;;;;;;;5039521;28;21175;-82
2023/06/08 09:41:39;;;;;;;11.15;5.55;;;;;;;;;;5040842;28;20906;-80
2023/06/08 09:44:18;;;;;;;12.68;5.55;;;;;;;;;;5038111;28;21217;-81
2023/06/08 09:46:47;;;;;;;10.40;4.80;;;;;;;;;;5046474;28;20423;-80
2023/06/08 09:49:16;;;;;;;9.18;4.75;;;;;;;;;;5048718;28;20435;-84
2023/06/08 09:51:51;;;;;;;10.98;4.68;;;;;;;;;;5046412;28;20435;-79
2023/06/08 09:54:23;;;;;;;10.33;5.17;;;;;;;;;;5048447;28;20748;-82
2023/06/08 09:56:57;;;;;;;10.13;5.30;;;;;;;;;;5044375;28;21871;-82
2023/06/08 09:59:29;;;;;;;11.02;5.00;;;;;;;;;;5042854;28;20423;-81
2023/06/08 10:01:58;;;;;;;10.93;4.97;;;;;;;;;;5043043;28;20422;-82
2023/06/08 10:04:31;;;;;;;10.57;5.47;;;;;;;;;;5037138;28;20427;-81
2023/06/08 10:07:03;;;;;;;9.27;5.00;;;;;;;;;;5040644;28;20436;-80
2023/06/08 10:09:37;;;;;;;9.57;4.90;;;;;;;;;;5042832;28;21760;-82
2023/06/08 10:12:10;;;;;;;8.50;4.82;;;;;;;;;;5036993;28;20432;-81
2023/06/08 10:14:40;;;;;;;8.43;4.53;;;;;;;;;;5041763;28;20446;-81
2023/06/08 10:17:15;;;;;;;8.63;4.50;;;;;;;;;;5039347;28;20442;-82
2023/06/08 10:19:48;;;;;;;9.07;4.43;;;;;;;;;;5039878;28;21833;-79
2023/06/08 10:22:17;;;;;;;8.40;4.45;;;;;;;;;;5040257;28;20430;-80
2023/06/08 10:24:50;;;;;;;10.38;5.07;;;;;;;;;;5045395;28;20423;-79
2023/06/08 10:27:19;;;;;;;8.32;4.50;;;;;;;;;;5041074;28;20431;-80
2023/06/08 10:29:55;;;;;;;9.82;4.70;;;;;;;;;;5040453;28;20424;-79
2023/06/08 10:32:29;;;;;;;8.20;4.63;;;;;;;;;;5047580;28;20796;-80
2023/06/08 10:34:57;;;;;;;8.23;4.70;;;;;;;;;;5046761;28;20432;-81
2023/06/08 10:37:32;;;;;;;8.63;4.82;;;;;;;;;;5041300;28;20466;-80
2023/06/08 10:40:08;;;;;;;11.95;4.68;;;;;;;;;;5041833;28;20426;-77
2023/06/08 10:42:51;;;;;;;9.35;4.65;;;;;;;;;;5047212;28;20427;-84
2023/06/08 10:45:31;;;;;;;9.60;4.70;;;;;;;;;;5046574;28;20423;-78
2023/06/08 10:48:02;;;;;;;11.15;4.40;;;;;;;;;;5044074;28;20442;-82
2023/06/08 10:50:31;;;;;;;7.82;4.25;;;;;;;;;;5041042;28;20416;-79
2023/06/08 10:53:00;;;;;;;8.05;4.30;;;;;;;;;;5047162;28;20423;-81
2023/06/08 10:55:33;;;;;;;11.20;4.55;;;;;;;;;;5047071;28;20850;-81
2023/06/08 10:58:05;;;;;;;10.18;4.53;;;;;;;;;;5045502;28;20420;-79
2023/06/08 11:00:45;;;;;;;10.57;4.70;;;;;;;;;;5043673;28;20431;-80
2023/06/08 11:03:20;;;;;;;8.70;4.50;;;;;;;;;;5049342;28;20427;-83
2023/06/08 11:05:58;;;;;;;8.40;5.00;;;;;;;;;;5049028;28;20442;-83
2023/06/08 11:08:36;;;;;;;7.95;4.53;;;;;;;;;;5042557;28;20435;-84
2023/06/08 11:11:04;;;;;;;9.63;4.63;;;;;;;;;;5041156;28;20760;-82
2023/06/08 11:13:32;;;;;;;8.30;4.20;;;;;;;;;;5019298;28;20442;-80
2023/06/08 11:16:01;;;;;;;9.23;4.35;;;;;;;;;;5043694;28;20423;-81
2023/06/08 11:18:34;;;;;;;9.15;4.20;;;;;;;;;;5039172;28;21080;-79
2023/06/08 11:21:07;;;;;;;9.70;4.43;;;;;;;;;;5043309;28;21112;-84
2023/06/08 11:23:35;;;;;;;8.10;4.25;;;;;;;;;;5044227;28;20424;-82
2023/06/08 11:26:11;;;;;;;8.95;4.50;;;;;;;;;;5047285;28;20438;-83
2023/06/08 11:28:38;;;;;;;9.57;4.90;;;;;;;;;;5046411;28;20962;-84
2023/06/08 11:31:06;;;;;;;10.52;4.85;;;;;;;;;;5047794;28;20904;-80
2023/06/08 11:33:34;;;;;;;8.40;4.68;;;;;;;;;;5055091;28;20413;-83
2023/06/08 11:36:02;;;;;;;10.38;5.00;;;;;;;;;;5041031;28;20454;-82
2023/06/08 11:38:30;;;;;;;9.60;4.95;;;;;;;;;;5045363;28;20431;-81
2023/06/08 11:40:58;;;;;;;8.00;4.53;;;;;;;;;;5041509;28;20438;-82
2023/06/08 11:43:27;;;;;;;8.23;4.70;;;;;;;;;;5044727;28;20439;-81
2023/06/08 11:46:01;;;;;;;8.75;4.50;;;;;;;;;;5039252;28;21815;-81
2023/06/08 11:48:28;;;;;;;9.75;4.60;;;;;;;;;;5039771;28;20403;-81
2023/06/08 11:50:56;;;;;;;10.73;4.70;;;;;;;;;;5048766;28;20717;-80
2023/06/08 11:53:24;;;;;;;8.57;5.00;;;;;;;;;;5045219;28;20763;-80
2023/06/08 11:55:52;;;;;;;8.90;4.95;;;;;;;;;;5050881;28;20419;-80
2023/06/08 11:58:25;;;;;;;11.55;4.68;;;;;;;;;;5041552;28;20424;-82
2023/06/08 12:01:07;;;;;;;9.50;5.10;;;;;;;;;;5045759;28;20427;-80
2023/06/08 12:03:43;;;;;;;9.27;4.80;;;;;;;;;;5044978;28;20435;-82
2023/06/08 12:06:16;;;;;;;8.68;5.00;;;;;;;;;;5043157;28;20426;-78
2023/06/08 12:08:44;;;;;;;9.90;4.70;;;;;;;;;;5043293;28;20553;-80
2023/06/08 12:11:19;;;;;;;9.02;5.05;;;;;;;;;;5047871;28;20541;-82
2023/06/08 12:13:47;;;;;;;9.13;4.88;;;;;;;;;;5016389;28;20439;-83
2023/06/08 12:16:16;;;;;;;9.00;4.80;;;;;;;;;;5038861;28;20427;-81
2023/06/08 12:18:44;;;;;;;9.10;5.00;;;;;;;;;;5038620;28;20436;-80
2023/06/08 12:21:15;;;;;;;14.37;5.20;;;;;;;;;;5043599;28;20414;-80
2023/06/08 12:23:43;;;;;;;9.52;5.07;;;;;;;;;;5039984;28;20928;-81
2023/06/08 12:26:11;;;;;;;8.02;4.88;;;;;;;;;;5038788;28;21832;-81
2023/06/08 12:28:44;;;;;;;13.93;5.20;;;;;;;;;;5039973;28;20427;-80
2023/06/08 12:31:18;;;;;;;12.93;5.10;;;;;;;;;;5046638;28;20824;-82
2023/06/08 12:33:46;;;;;;;11.02;5.03;;;;;;;;;;5047513;28;21147;-81
2023/06/08 12:36:14;;;;;;;10.13;4.85;;;;;;;;;;5041714;28;20411;-82
2023/06/08 12:38:47;;;;;;;10.20;5.20;;;;;;;;;;5042807;28;20428;-81
2023/06/08 12:41:15;;;;;;;9.98;4.80;;;;;;;;;;5040108;28;20435;-82
2023/06/08 12:43:45;;;;;;;9.07;4.80;;;;;;;;;;5042756;28;20424;-80
2023/06/08 12:46:18;;;;;;;8.63;5.03;;;;;;;;;;5039594;28;20428;-82
2023/06/08 12:48:54;;;;;;;11.18;4.95;;;;;;;;;;5043558;28;20431;-83
2023/06/08 12:51:27;;;;;;;10.27;5.23;;;;;;;;;;5046514;28;20431;-77
2023/06/08 12:54:00;;;;;;;9.15;4.97;;;;;;;;;;5049815;28;20427;-84
2023/06/08 12:56:28;;;;;;;9.57;5.22;;;;;;;;;;5046737;28;20408;-82
2023/06/08 12:58:56;;;;;;;10.27;5.10;;;;;;;;;;5036884;28;20435;-81
2023/06/08 13:01:29;;;;;;;10.35;5.00;;;;;;;;;;5046404;28;20903;-81
2023/06/08 13:04:04;;;;;;;11.65;5.10;;;;;;;;;;5047559;28;20424;-81
2023/06/08 13:06:35;;;;;;;10.38;4.90;;;;;;;;;;5047073;28;20423;-80
2023/06/08 13:09:10;;;;;;;9.88;5.40;;;;;;;;;;5051480;28;20426;-82
2023/06/08 13:11:39;;;;;;;11.60;5.32;;;;;;;;;;5043189;28;20403;-80
2023/06/08 13:14:07;;;;;;;8.70;5.18;;;;;;;;;;5011778;28;20811;-82
2023/06/08 13:16:35;;;;;;;9.85;5.00;;;;;;;;;;5038307;28;20428;-78
2023/06/08 13:19:04;;;;;;;10.73;4.82;;;;;;;;;;5039503;28;20758;-80
2023/06/08 13:21:33;;;;;;;11.23;5.38;;;;;;;;;;5041369;28;20412;-82
2023/06/08 13:24:01;;;;;;;10.85;5.10;;;;;;;;;;5043147;28;20412;-79
2023/06/08 13:26:29;;;;;;;10.57;5.28;;;;;;;;;;5045479;28;20438;-81
2023/06/08 13:28:57;;;;;;;9.52;5.15;;;;;;;;;;5041327;28;20824;-80
2023/06/08 13:31:25;;;;;;;10.13;4.97;;;;;;;;;;5042310;28;20431;-78
2023/06/08 13:33:53;;;;;;;9.68;4.90;;;;;;;;;;5042654;28;20438;-80
2023/06/08 13:36:27;;;;;;;9.80;5.00;;;;;;;;;;5040070;28;20424;-81
2023/06/08 13:39:02;;;;;;;12.07;5.03;;;;;;;;;;5041140;28;20414;-81
2023/06/08 13:41:36;;;;;;;8.20;4.60;;;;;;;;;;5042264;28;20812;-82
2023/06/08 13:44:09;;;;;;;9.87;5.07;;;;;;;;;;5038784;28;20466;-81
2023/06/08 13:46:42;;;;;;;9.75;5.38;;;;;;;;;;5041888;28;20530;-80
2023/06/08 13:49:09;;;;;;;11.10;4.70;;;;;;;;;;5041228;28;20736;-78
2023/06/08 13:51:44;;;;;;;9.95;5.05;;;;;;;;;;5044397;28;20431;-82
2023/06/08 13:54:13;;;;;;;8.43;4.60;;;;;;;;;;5038579;28;20912;-79
2023/06/08 13:56:46;;;;;;;10.68;4.95;;;;;;;;;;5042108;28;20434;-84
2023/06/08 13:59:19;;;;;;;12.90;5.30;;;;;;;;;;5041821;28;20423;-81
2023/06/08 14:01:53;;;;;;;9.25;4.80;;;;;;;;;;5037984;28;20432;-81
2023/06/08 14:04:21;;;;;;;8.30;4.72;;;;;;;;;;5045606;28;20975;-80
2023/06/08 14:06:50;;;;;;;9.52;4.82;;;;;;;;;;5039159;28;20438;-78
2023/06/08 14:09:18;;;;;;;11.32;5.40;;;;;;;;;;5042369;28;20474;-78
2023/06/08 14:11:46;;;;;;;8.77;5.07;;;;;;;;;;5044472;28;20843;-75
2023/06/08 14:14:14;;;;;;;8.90;4.80;;;;;;;;;;5016232;28;21242;-77
2023/06/08 14:16:47;;;;;;;8.30;4.68;;;;;;;;;;5049448;28;20424;-80
2023/06/08 14:19:20;;;;;;;9.68;5.00;;;;;;;;;;5042874;28;22068;-82
2023/06/08 14:21:48;;;;;;;10.98;4.80;;;;;;;;;;5042694;28;20427;-80
2023/06/08 14:24:22;;;;;;;9.27;4.72;;;;;;;;;;5035253;28;20470;-82
2023/06/08 14:26:55;;;;;;;8.27;4.70;;;;;;;;;;5041455;28;20419;-80
2023/06/08 14:29:23;;;;;;;9.02;4.80;;;;;;;;;;5044723;28;20400;-83
2023/06/08 14:31:55;;;;;;;10.30;5.13;;;;;;;;;;5039496;28;21126;-82
2023/06/08 14:34:23;;;;;;;10.05;4.95;;;;;;;;;;5035367;28;20427;-81
2023/06/08 14:36:51;;;;;;;10.43;5.00;;;;;;;;;;5038165;28;21863;-80
2023/06/08 14:39:19;;;;;;;9.38;5.38;;;;;;;;;;5045748;28;20435;-79
2023/06/08 14:41:54;;;;;;;9.98;5.18;;;;;;;;;;5042127;28;20831;-85
2023/06/08 14:44:22;;;;;;;11.55;5.32;;;;;;;;;;5045880;28;20411;-79
2023/06/08 14:46:49;;;;;;;9.32;4.95;;;;;;;;;;5040551;28;20416;-82
2023/06/08 14:49:17;;;;;;;9.27;4.80;;;;;;;;;;5045873;28;20427;-80
2023/06/08 14:51:45;;;;;;;10.93;5.20;;;;;;;;;;5042744;28;20899;-81
2023/06/08 14:54:18;;;;;;;10.18;5.25;;;;;;;;;;5048119;28;20432;-80